Archival Weather

Republic

Farmingdale, New York (KFRG)

Report from: Saturday, February 24, 2024 4:53 AM EST
Current time: Friday, June 21, 2024 3:35 AM EDT

Current weather – Weather history – Daily summaries
Weather forecast

Temperature4.4°C (39.9°F)
Wind chill1.4°C (34.5°F)
Dew point1.1°C (34.0°F)
Winds 7 kts (3.6 m/s, 8.1 mph) North (350°)
Wind gusts 16 kts (8.2 m/s, 18.4 mph)
Visibility10 mi. (16.1 km)
Clouds Sky clear
Altimeter29.51 in.Hg (999 mB)
Relative humidity79 %
Density altitude-709 ft. (-216 m)
Sea-level pressure99.9 kPa (999 mB, 29.51 in.Hg)
Remarks Fully automated report
Automated weather observing station without precipitation discriminator
Flight conditions Visual Meteorological Conditions
Raw dataKFRG 240953Z AUTO 35007G16KT 10SM CLR 04/01 A2951 RMK AO1 SLP994 T00440011
An error has occurred. This application may no longer respond until reloaded. Reload 🗙